European Causeway — C6RG7 — position and weather

sailwx.info

Track history (hours):
 
Tides and Currents Weather Stations Pressure Air Temp Water Temp Dewpoint Dewpoint Depression Visibility Wind Speed Wind Dir Waves Ship Positions

European Causeway

Operator: P & O Irish Sea

Last reported at 2019-Aug-20 09:30 UTC. Time now 2019-Aug-20 09:31 UTC.
Position N 54°51' W 005°48'.

Length 145 m; draft 5.5 m.

Type: Passenger vessel. MMSI: 311027000.

Date/timePositionNaut miles runAvg speedWind from/ knotsBaromVisibWave heightAir tempDewpointWater temp
2019-Aug-20 09:30N 54°51' W 005°48'0 0.1
2019-Aug-20 09:00N 54°51' W 005°48'1118.3
2019-Aug-20 08:23N 54°57' W 005°31'921.7
2019-Aug-20 07:58N 55°00' W 005°17'4 0.9
2019-Aug-20 03:53N 54°60' W 005°23'1018.1
2019-Aug-20 03:21N 54°55' W 005°37'716.2
2019-Aug-20 02:56N 54°51' W 005°48'0 0.4
2019-Aug-20 02:30N 54°51' W 005°48'0 0.0
2019-Aug-20 02:00N 54°51' W 005°48'0 0.0
2019-Aug-20 01:30N 54°51' W 005°48'0 0.1
2019-Aug-20 01:00N 54°51' W 005°48'712.0
2019-Aug-20 00:27N 54°54' W 005°38'816.9
2019-Aug-19 23:58N 54°58' W 005°25'917.2
2019-Aug-19 23:27N 55°01' W 005°11'2 0.6
2019-Aug-19 20:12N 55°00' W 005°14'618.9
2019-Aug-19 19:55N 54°58' W 005°22'920.5
2019-Aug-19 19:29N 54°54' W 005°36'715.5
2019-Aug-19 19:00N 54°51' W 005°48'0 0.1
2019-Aug-19 18:23N 54°51' W 005°48'0 0.0
2019-Aug-19 17:53N 54°51' W 005°48'6 6.6
2019-Aug-19 17:01N 54°54' W 005°39'018.4
2019-Aug-19 16:59N 54°54' W 005°39'16 5.0
2019-Aug-19 13:51N 55°00' W 005°13'1321.8
2019-Aug-19 13:15N 54°54' W 005°34'916.5
2019-Aug-19 12:43N 54°51' W 005°48'0 0.1
2019-Aug-19 12:19N 54°51' W 005°48'0 0.0
2019-Aug-19 11:34N 54°51' W 005°48'0 0.1
2019-Aug-19 11:27N 54°51' W 005°48'1015.1
2019-Aug-19 10:49N 54°55' W 005°33'1118.1
2019-Aug-19 10:14N 55°00' W 005°17'3 1.1
2019-Aug-19 07:53N 55°00' W 005°12'717.6
2019-Aug-19 07:28N 54°57' W 005°24'918.3
2019-Aug-19 07:00N 54°54' W 005°37'713.9
2019-Aug-19 06:30N 54°51' W 005°48'0 0.1
2019-Aug-19 05:56N 54°51' W 005°48'0 0.0
2019-Aug-19 05:26N 54°51' W 005°48'0 0.0
2019-Aug-19 05:00N 54°51' W 005°48'912.6
2019-Aug-19 04:16N 54°56' W 005°34'517.9
2019-Aug-19 03:58N 54°58' W 005°25'816.8
2019-Aug-19 03:30N 55°01' W 005°13'1 0.2
2019-Aug-19 00:14N 55°01' W 005°12'617.6
2019-Aug-18 23:52N 54°58' W 005°22'718.4
2019-Aug-18 23:28N 54°55' W 005°34'917.5
2019-Aug-18 22:58N 54°51' W 005°48'0 0.7
2019-Aug-18 22:30N 54°51' W 005°48'0 0.0
2019-Aug-18 21:59N 54°51' W 005°48'0 0.0
2019-Aug-18 21:30N 54°51' W 005°48'0 0.0
2019-Aug-18 21:00N 54°51' W 005°48'911.9
2019-Aug-18 20:16N 54°55' W 005°34'1217.3
2019-Aug-18 19:36N 55°00' W 005°16'3 0.9
2019-Aug-18 16:49N 55°01' W 005°12'620.1
2019-Aug-18 16:30N 54°58' W 005°22'1019.0
2019-Aug-18 15:59N 54°54' W 005°38'714.3
2019-Aug-18 15:31N 54°51' W 005°48'0 0.0
2019-Aug-18 14:54N 54°51' W 005°48'0 0.0
2019-Aug-18 14:30N 54°51' W 005°48'711.4
2019-Aug-18 13:55N 54°54' W 005°38'817.0
2019-Aug-18 13:27N 54°58' W 005°25'817.1
2019-Aug-18 12:59N 55°01' W 005°13'1 0.5
2019-Aug-18 10:41N 55°00' W 005°13'717.3
2019-Aug-18 10:18N 54°57' W 005°24'618.3
2019-Aug-18 09:59N 54°55' W 005°33'917.1
2019-Aug-18 09:26N 54°51' W 005°48'0 0.2
2019-Aug-18 08:50N 54°51' W 005°48'0 0.0
2019-Aug-18 08:30N 54°51' W 005°48'711.2
2019-Aug-18 07:53N 54°54' W 005°37'1516.4
2019-Aug-18 06:59N 55°01' W 005°14'1 0.1
2019-Aug-17 20:20N 54°60' W 005°16'1118.2
2019-Aug-17 19:45N 54°55' W 005°32'518.6
2019-Aug-17 19:30N 54°53' W 005°40'510.5
2019-Aug-17 18:59N 54°51' W 005°48'0 0.0
2019-Aug-17 18:14N 54°51' W 005°48'0 0.0
2019-Aug-17 17:20N 54°51' W 005°48'712.1
2019-Aug-17 16:43N 54°55' W 005°37'519.7
2019-Aug-17 16:28N 54°58' W 005°30'8 3.1
2019-Aug-17 13:43N 54°60' W 005°16'418.2
2019-Aug-17 13:28N 54°58' W 005°23'817.6
2019-Aug-17 13:00N 54°55' W 005°36'815.7
2019-Aug-17 12:30N 54°51' W 005°48'0 0.2
2019-Aug-17 12:00N 54°51' W 005°48'0 0.0
2019-Aug-17 11:31N 54°51' W 005°48'711.0
2019-Aug-17 10:52N 54°54' W 005°37'817.1
2019-Aug-17 10:25N 54°58' W 005°25'8 2.9
2019-Aug-17 07:42N 55°01' W 005°13'617.9
2019-Aug-17 07:22N 54°58' W 005°22'618.3
2019-Aug-17 07:01N 54°55' W 005°32'1017.6
2019-Aug-17 06:27N 54°51' W 005°48'0 0.2
2019-Aug-17 05:38N 54°51' W 005°48'0 0.0
2019-Aug-17 05:23N 54°51' W 005°48'0 0.0
2019-Aug-17 05:00N 54°51' W 005°48'510.2
2019-Aug-17 04:28N 54°54' W 005°40'817.6
2019-Aug-17 03:59N 54°58' W 005°27'917.0
2019-Aug-17 03:29N 55°01' W 005°13'0 0.1
2019-Aug-17 00:16N 55°01' W 005°12'718.3
2019-Aug-16 23:55N 54°58' W 005°22'918.3
2019-Aug-16 23:25N 54°54' W 005°37'716.5
2019-Aug-16 23:00N 54°51' W 005°48'0 0.3
2019-Aug-16 22:30N 54°51' W 005°48'0 0.0
2019-Aug-16 22:00N 54°51' W 005°48'0 0.0
2019-Aug-16 21:30N 54°51' W 005°48'6 6.7
2019-Aug-16 20:37N 54°54' W 005°39'416.9
2019-Aug-16 20:25N 54°56' W 005°34'716.5
2019-Aug-16 20:00N 54°59' W 005°24'6 1.9
2019-Aug-16 16:46N 55°00' W 005°14'520.0
2019-Aug-16 16:29N 54°58' W 005°22'1019.7
2019-Aug-16 16:00N 54°54' W 005°38'713.7
2019-Aug-16 15:30N 54°51' W 005°48'0 0.0
2019-Aug-16 14:51N 54°51' W 005°48'0 0.0
2019-Aug-16 14:30N 54°51' W 005°48'1014.8
2019-Aug-16 13:51N 54°56' W 005°33'719.6
2019-Aug-16 13:30N 54°59' W 005°23'6 2.4
2019-Aug-16 10:52N 55°00' W 005°13'720.2
2019-Aug-16 10:30N 54°57' W 005°24'1519.1
2019-Aug-16 09:43N 54°51' W 005°48'0 0.5
2019-Aug-16 09:30N 54°51' W 005°48'0 0.0
2019-Aug-16 08:58N 54°51' W 005°48'0 0.1
2019-Aug-16 08:30N 54°51' W 005°48'712.8
2019-Aug-16 07:59N 54°54' W 005°38'816.3
2019-Aug-16 07:29N 54°58' W 005°25'7 2.0
2019-Aug-16 04:13N 55°00' W 005°14'1117.7
2019-Aug-16 03:34N 54°56' W 005°33'217.0
2019-Aug-16 03:28N 54°55' W 005°36'816.1
2019-Aug-16 02:57N 54°51' W 005°48'0 0.3
2019-Aug-16 02:30N 54°51' W 005°48'0 0.0
2019-Aug-16 02:00N 54°51' W 005°48'0 0.0
2019-Aug-16 01:30N 54°51' W 005°48'0 0.0
2019-Aug-16 01:00N 54°51' W 005°48'914.0
2019-Aug-16 00:20N 54°55' W 005°34'618.0
2019-Aug-15 23:59N 54°58' W 005°24'7 1.9
2019-Aug-15 20:18N 55°00' W 005°12'617.4
2019-Aug-15 19:56N 54°58' W 005°22'1118.5
2019-Aug-15 19:22N 54°54' W 005°40'515.0
2019-Aug-15 19:00N 54°51' W 005°48'0 0.2
2019-Aug-15 18:25N 54°51' W 005°48'0 0.0
2019-Aug-15 17:55N 54°51' W 005°48'0 0.0
2019-Aug-15 17:30N 54°51' W 005°48'612.4
2019-Aug-15 17:00N 54°54' W 005°39'917.6
2019-Aug-15 16:30N 54°58' W 005°25'9 3.4
2019-Aug-15 13:53N 55°01' W 005°11'720.4
2019-Aug-15 13:31N 54°58' W 005°22'1019.0
2019-Aug-15 12:59N 54°54' W 005°38'613.3
2019-Aug-15 12:30N 54°51' W 005°48'0 0.1
2019-Aug-15 12:00N 54°51' W 005°48'0 0.0
2019-Aug-15 11:30N 54°51' W 005°48'713.0
2019-Aug-15 10:59N 54°54' W 005°38'917.4
2019-Aug-15 10:27N 54°58' W 005°24'1 0.4
2019-Aug-15 07:15N 54°57' W 005°24'618.0
2019-Aug-15 06:57N 54°55' W 005°33'917.6
2019-Aug-15 06:25N 54°51' W 005°48'0 0.5
2019-Aug-15 05:53N 54°51' W 005°48'0 0.0
2019-Aug-15 05:26N 54°51' W 005°48'0 0.0
2019-Aug-15 05:01N 54°51' W 005°48'510.6
2019-Aug-15 04:29N 54°54' W 005°40'919.0
2019-Aug-15 04:00N 54°58' W 005°26'8 2.3
2019-Aug-15 00:28N 55°01' W 005°12'1420.1
2019-Aug-14 23:45N 54°55' W 005°35'416.6
2019-Aug-14 23:30N 54°53' W 005°41'4 8.8
2019-Aug-14 23:00N 54°51' W 005°48'0 0.0
2019-Aug-14 22:23N 54°51' W 005°48'0 0.0
2019-Aug-14 21:53N 54°51' W 005°48'0 0.0
2019-Aug-14 21:20N 54°51' W 005°48'0 0.0
2019-Aug-14 21:00N 54°51' W 005°48'1514.2
2019-Aug-14 19:58N 54°58' W 005°25'7 2.1
2019-Aug-14 16:49N 54°60' W 005°14'620.1
2019-Aug-14 16:30N 54°57' W 005°24'1120.2
2019-Aug-14 15:56N 54°53' W 005°42'4 8.7
2019-Aug-14 15:30N 54°51' W 005°48'0 0.0
2019-Aug-14 14:52N 54°51' W 005°48'0 0.0
2019-Aug-14 14:29N 54°51' W 005°48'613.1
2019-Aug-14 13:59N 54°54' W 005°38'918.0
2019-Aug-14 13:29N 54°58' W 005°24'7 2.6
2019-Aug-14 10:46N 55°01' W 005°13'718.0
2019-Aug-14 10:22N 54°57' W 005°24'717.9
2019-Aug-14 09:57N 54°54' W 005°36'816.3
2019-Aug-14 09:28N 54°51' W 005°48'0 0.2
2019-Aug-14 08:49N 54°51' W 005°48'0 0.0
2019-Aug-14 08:30N 54°51' W 005°48'510.8
2019-Aug-14 07:59N 54°54' W 005°40'1518.0
2019-Aug-14 07:11N 55°00' W 005°17'3 1.2
2019-Aug-14 04:19N 55°02' W 005°11'616.8
2019-Aug-14 03:58N 54°58' W 005°20'818.4
2019-Aug-14 03:31N 54°55' W 005°33'916.8
2019-Aug-14 02:57N 54°51' W 005°48'0 0.3
2019-Aug-14 02:28N 54°51' W 005°48'0 0.0
2019-Aug-14 01:49N 54°51' W 005°48'0 0.0
2019-Aug-14 01:19N 54°51' W 005°48'0 0.0
2019-Aug-14 01:00N 54°51' W 005°48'612.2
2019-Aug-14 00:29N 54°54' W 005°39'918.3
2019-Aug-14 00:00N 54°58' W 005°25'917.5
2019-Aug-13 23:30N 55°01' W 005°11'8 2.3
2019-Aug-13 19:50N 54°57' W 005°23'718.0
2019-Aug-13 19:25N 54°54' W 005°36'817.2
2019-Aug-13 18:58N 54°51' W 005°48'0 0.7
2019-Aug-13 18:29N 54°51' W 005°48'0 0.0
2019-Aug-13 17:50N 54°51' W 005°48'0 0.0
2019-Aug-13 17:30N 54°51' W 005°48'1015.1
2019-Aug-13 16:49N 54°56' W 005°33'920.3
2019-Aug-13 16:24N 54°60' W 005°19'4 1.8
2019-Aug-13 13:55N 55°02' W 005°12'1021.7
2019-Aug-13 13:26N 54°56' W 005°27'920.8
2019-Aug-13 13:00N 54°53' W 005°42'4 6.0
2019-Aug-13 12:19N 54°51' W 005°48'0 0.0
2019-Aug-13 11:46N 54°51' W 005°48'0 0.0
2019-Aug-13 11:28N 54°51' W 005°48'610.3
2019-Aug-13 10:56N 54°54' W 005°40'1318.3
2019-Aug-13 10:13N 54°59' W 005°19'417.8
2019-Aug-13 09:59N 55°01' W 005°12'2 0.9
2019-Aug-13 07:39N 54°60' W 005°15'418.0
2019-Aug-13 07:26N 54°58' W 005°21'818.7
2019-Aug-13 07:00N 54°55' W 005°34'917.3
2019-Aug-13 06:30N 54°51' W 005°48'0 0.3
2019-Aug-13 06:00N 54°51' W 005°48'0 0.0
2019-Aug-13 05:29N 54°51' W 005°48'0 0.0
2019-Aug-13 05:00N 54°51' W 005°48'712.6
2019-Aug-13 04:28N 54°55' W 005°38'817.6
2019-Aug-13 04:00N 54°59' W 005°26'8 2.2
2019-Aug-13 00:18N 55°01' W 005°12'618.7
2019-Aug-12 23:58N 54°58' W 005°22'817.9
2019-Aug-12 23:30N 54°55' W 005°35'816.1
2019-Aug-12 23:00N 54°51' W 005°48'0 0.3
2019-Aug-12 22:28N 54°51' W 005°48'0 0.0
2019-Aug-12 21:58N 54°51' W 005°48'0 0.0
2019-Aug-12 21:19N 54°51' W 005°48'0 0.0
2019-Aug-12 20:59N 54°51' W 005°48'1513.7
2019-Aug-12 19:52N 54°58' W 005°24'6 2.0
2019-Aug-12 16:49N 54°60' W 005°14'1421.8
2019-Aug-12 16:11N 54°54' W 005°36'422.1
2019-Aug-12 16:00N 54°53' W 005°43'4 3.8
2019-Aug-12 15:03N 54°51' W 005°48'0 0.0
2019-Aug-12 14:48N 54°51' W 005°48'0 0.0
2019-Aug-12 14:29N 54°51' W 005°48'510.6
2019-Aug-12 14:00N 54°54' W 005°41'1118.1
2019-Aug-12 13:25N 54°59' W 005°25'6 2.2
2019-Aug-12 10:42N 54°60' W 005°15'520.5
2019-Aug-12 10:28N 54°58' W 005°22'919.8
2019-Aug-12 10:00N 54°54' W 005°37'714.6
2019-Aug-12 09:30N 54°51' W 005°48'0 0.1
2019-Aug-12 08:59N 54°51' W 005°48'0 0.0
2019-Aug-12 08:29N 54°51' W 005°48'4 6.6
2019-Aug-12 07:55N 54°53' W 005°43'918.1
2019-Aug-12 07:27N 54°57' W 005°30'818.1
2019-Aug-12 07:00N 54°60' W 005°17'2 0.9
2019-Aug-12 04:16N 55°01' W 005°12'617.7
2019-Aug-12 03:55N 54°58' W 005°22'918.6
2019-Aug-12 03:27N 54°54' W 005°36'816.4
2019-Aug-12 03:00N 54°51' W 005°48'0 0.5
2019-Aug-12 02:25N 54°51' W 005°48'0 0.0
2019-Aug-12 01:55N 54°51' W 005°48'0 0.0
2019-Aug-12 01:25N 54°51' W 005°48'0 0.0
2019-Aug-12 00:58N 54°51' W 005°48'6 8.3
2019-Aug-12 00:16N 54°54' W 005°39'818.1
2019-Aug-11 23:50N 54°57' W 005°27'617.6
2019-Aug-11 23:28N 54°60' W 005°17'3 0.8
2019-Aug-11 20:15N 55°01' W 005°12'819.5
2019-Aug-11 19:50N 54°57' W 005°24'619.6
2019-Aug-11 19:30N 54°55' W 005°35'816.7
2019-Aug-11 19:00N 54°51' W 005°48'0 0.1
2019-Aug-11 18:24N 54°51' W 005°48'0 0.0
2019-Aug-11 17:57N 54°51' W 005°48'0 0.0
2019-Aug-11 17:30N 54°51' W 005°48'713.3
2019-Aug-11 16:59N 54°54' W 005°37'816.9
2019-Aug-11 16:30N 54°58' W 005°25'7 2.7
2019-Aug-11 13:49N 55°00' W 005°13'617.8
2019-Aug-11 13:27N 54°57' W 005°23'817.4
2019-Aug-11 12:59N 54°54' W 005°36'715.4
2019-Aug-11 12:30N 54°51' W 005°48'0 0.2
2019-Aug-11 12:01N 54°51' W 005°48'0 0.0
2019-Aug-11 11:31N 54°51' W 005°48'712.0
2019-Aug-11 10:57N 54°54' W 005°38'1321.7
2019-Aug-11 10:21N 54°60' W 005°17'3 1.1
2019-Aug-11 07:53N 55°01' W 005°13'717.6
2019-Aug-11 07:29N 54°57' W 005°24'917.3
2019-Aug-11 06:58N 54°54' W 005°38'613.8
2019-Aug-11 06:30N 54°51' W 005°48'0 0.1
2019-Aug-11 05:48N 54°51' W 005°48'0 0.0
2019-Aug-11 05:30N 54°51' W 005°48'0 0.0
2019-Aug-11 05:00N 54°51' W 005°48'0 0.0
2019-Aug-11 04:30N 54°51' W 005°48'0 0.0
2019-Aug-11 03:51N 54°51' W 005°48'0 0.0
2019-Aug-11 03:21N 54°51' W 005°48'0 0.0
2019-Aug-11 03:00N 54°51' W 005°48'0 0.0
2019-Aug-11 02:24N 54°51' W 005°48'0 0.0
2019-Aug-11 01:54N 54°51' W 005°48'0 0.0
2019-Aug-11 01:24N 54°51' W 005°48'0 0.0
2019-Aug-11 00:54N 54°51' W 005°48'0 0.0
2019-Aug-11 00:24N 54°51' W 005°48'0 0.0
2019-Aug-10 23:57N 54°51' W 005°48'0 0.0
2019-Aug-10 23:30N 54°51' W 005°48'0 0.0
2019-Aug-10 22:57N 54°51' W 005°48'0 0.0
2019-Aug-10 22:27N 54°51' W 005°48'0 0.0
2019-Aug-10 21:54N 54°51' W 005°48'0 0.0
2019-Aug-10 21:27N 54°51' W 005°48'0 0.0
2019-Aug-10 21:00N 54°51' W 005°48'810.1
2019-Aug-10 20:14N 54°55' W 005°36'1216.9
2019-Aug-10 19:31N 54°60' W 005°17'017.2
2019-Aug-10 19:30N 54°60' W 005°17'4 1.4
2019-Aug-10 16:53N 55°01' W 005°11'717.7
2019-Aug-10 16:28N 54°58' W 005°22'1118.4
2019-Aug-10 15:53N 54°54' W 005°39'614.7
2019-Aug-10 15:30N 54°51' W 005°48'0 0.1
2019-Aug-10 15:00N 54°51' W 005°48'0 0.1
2019-Aug-10 14:30N 54°51' W 005°48'917.5
2019-Aug-10 14:00N 54°57' W 005°37'1120.9
2019-Aug-10 13:28N 55°01' W 005°18'3 1.1
2019-Aug-10 10:46N 55°01' W 005°13'618.1
2019-Aug-10 10:27N 54°57' W 005°21'917.3
2019-Aug-10 09:55N 54°54' W 005°37'  
Track history (hours):
 
Tides and Currents Weather Stations Pressure Air Temp Water Temp Dewpoint Dewpoint Depression Visibility Wind Speed Wind Dir Waves Ship Positions

European Causeway

Operator: P & O Irish Sea

Last reported at 2019-Aug-20 09:30 UTC. Time now 2019-Aug-20 09:31 UTC.
Position N 54°51' W 005°48'.

Length 145 m; draft 5.5 m.

Type: Passenger vessel. MMSI: 311027000.

Date/timePositionNaut miles runAvg speedWind from/ knotsBaromVisibWave heightAir tempDewpointWater temp
2019-Aug-20 09:30N 54°51' W 005°48'0 0.1
2019-Aug-20 09:00N 54°51' W 005°48'1118.3
2019-Aug-20 08:23N 54°57' W 005°31'921.7
2019-Aug-20 07:58N 55°00' W 005°17'4 0.9
2019-Aug-20 03:53N 54°60' W 005°23'1018.1
2019-Aug-20 03:21N 54°55' W 005°37'716.2
2019-Aug-20 02:56N 54°51' W 005°48'0 0.4
2019-Aug-20 02:30N 54°51' W 005°48'0 0.0
2019-Aug-20 02:00N 54°51' W 005°48'0 0.0
2019-Aug-20 01:30N 54°51' W 005°48'0 0.1
2019-Aug-20 01:00N 54°51' W 005°48'712.0
2019-Aug-20 00:27N 54°54' W 005°38'816.9
2019-Aug-19 23:58N 54°58' W 005°25'917.2
2019-Aug-19 23:27N 55°01' W 005°11'2 0.6
2019-Aug-19 20:12N 55°00' W 005°14'618.9
2019-Aug-19 19:55N 54°58' W 005°22'920.5
2019-Aug-19 19:29N 54°54' W 005°36'715.5
2019-Aug-19 19:00N 54°51' W 005°48'0 0.1
2019-Aug-19 18:23N 54°51' W 005°48'0 0.0
2019-Aug-19 17:53N 54°51' W 005°48'6 6.6
2019-Aug-19 17:01N 54°54' W 005°39'018.4
2019-Aug-19 16:59N 54°54' W 005°39'16 5.0
2019-Aug-19 13:51N 55°00' W 005°13'1321.8
2019-Aug-19 13:15N 54°54' W 005°34'916.5
2019-Aug-19 12:43N 54°51' W 005°48'0 0.1
2019-Aug-19 12:19N 54°51' W 005°48'0 0.0
2019-Aug-19 11:34N 54°51' W 005°48'0 0.1
2019-Aug-19 11:27N 54°51' W 005°48'1015.1
2019-Aug-19 10:49N 54°55' W 005°33'1118.1
2019-Aug-19 10:14N 55°00' W 005°17'3 1.1
2019-Aug-19 07:53N 55°00' W 005°12'717.6
2019-Aug-19 07:28N 54°57' W 005°24'918.3
2019-Aug-19 07:00N 54°54' W 005°37'713.9
2019-Aug-19 06:30N 54°51' W 005°48'0 0.1
2019-Aug-19 05:56N 54°51' W 005°48'0 0.0
2019-Aug-19 05:26N 54°51' W 005°48'0 0.0
2019-Aug-19 05:00N 54°51' W 005°48'912.6
2019-Aug-19 04:16N 54°56' W 005°34'517.9
2019-Aug-19 03:58N 54°58' W 005°25'816.8
2019-Aug-19 03:30N 55°01' W 005°13'1 0.2
2019-Aug-19 00:14N 55°01' W 005°12'617.6
2019-Aug-18 23:52N 54°58' W 005°22'718.4
2019-Aug-18 23:28N 54°55' W 005°34'917.5
2019-Aug-18 22:58N 54°51' W 005°48'0 0.7
2019-Aug-18 22:30N 54°51' W 005°48'0 0.0
2019-Aug-18 21:59N 54°51' W 005°48'0 0.0
2019-Aug-18 21:30N 54°51' W 005°48'0 0.0
2019-Aug-18 21:00N 54°51' W 005°48'911.9
2019-Aug-18 20:16N 54°55' W 005°34'1217.3
2019-Aug-18 19:36N 55°00' W 005°16'3 0.9
2019-Aug-18 16:49N 55°01' W 005°12'620.1
2019-Aug-18 16:30N 54°58' W 005°22'1019.0
2019-Aug-18 15:59N 54°54' W 005°38'714.3
2019-Aug-18 15:31N 54°51' W 005°48'0 0.0
2019-Aug-18 14:54N 54°51' W 005°48'0 0.0
2019-Aug-18 14:30N 54°51' W 005°48'711.4
2019-Aug-18 13:55N 54°54' W 005°38'817.0
2019-Aug-18 13:27N 54°58' W 005°25'817.1
2019-Aug-18 12:59N 55°01' W 005°13'1 0.5
2019-Aug-18 10:41N 55°00' W 005°13'717.3
2019-Aug-18 10:18N 54°57' W 005°24'618.3
2019-Aug-18 09:59N 54°55' W 005°33'917.1
2019-Aug-18 09:26N 54°51' W 005°48'0 0.2
2019-Aug-18 08:50N 54°51' W 005°48'0 0.0
2019-Aug-18 08:30N 54°51' W 005°48'711.2
2019-Aug-18 07:53N 54°54' W 005°37'1516.4
2019-Aug-18 06:59N 55°01' W 005°14'1 0.1
2019-Aug-17 20:20N 54°60' W 005°16'1118.2
2019-Aug-17 19:45N 54°55' W 005°32'518.6
2019-Aug-17 19:30N 54°53' W 005°40'510.5
2019-Aug-17 18:59N 54°51' W 005°48'0 0.0
2019-Aug-17 18:14N 54°51' W 005°48'0 0.0
2019-Aug-17 17:20N 54°51' W 005°48'712.1
2019-Aug-17 16:43N 54°55' W 005°37'519.7
2019-Aug-17 16:28N 54°58' W 005°30'8 3.1
2019-Aug-17 13:43N 54°60' W 005°16'418.2
2019-Aug-17 13:28N 54°58' W 005°23'817.6
2019-Aug-17 13:00N 54°55' W 005°36'815.7
2019-Aug-17 12:30N 54°51' W 005°48'0 0.2
2019-Aug-17 12:00N 54°51' W 005°48'0 0.0
2019-Aug-17 11:31N 54°51' W 005°48'711.0
2019-Aug-17 10:52N 54°54' W 005°37'817.1
2019-Aug-17 10:25N 54°58' W 005°25'8 2.9
2019-Aug-17 07:42N 55°01' W 005°13'617.9
2019-Aug-17 07:22N 54°58' W 005°22'618.3
2019-Aug-17 07:01N 54°55' W 005°32'1017.6
2019-Aug-17 06:27N 54°51' W 005°48'0 0.2
2019-Aug-17 05:38N 54°51' W 005°48'0 0.0
2019-Aug-17 05:23N 54°51' W 005°48'0 0.0
2019-Aug-17 05:00N 54°51' W 005°48'510.2
2019-Aug-17 04:28N 54°54' W 005°40'817.6
2019-Aug-17 03:59N 54°58' W 005°27'917.0
2019-Aug-17 03:29N 55°01' W 005°13'0 0.1
2019-Aug-17 00:16N 55°01' W 005°12'718.3
2019-Aug-16 23:55N 54°58' W 005°22'918.3
2019-Aug-16 23:25N 54°54' W 005°37'716.5
2019-Aug-16 23:00N 54°51' W 005°48'0 0.3
2019-Aug-16 22:30N 54°51' W 005°48'0 0.0
2019-Aug-16 22:00N 54°51' W 005°48'0 0.0
2019-Aug-16 21:30N 54°51' W 005°48'6 6.7
2019-Aug-16 20:37N 54°54' W 005°39'416.9
2019-Aug-16 20:25N 54°56' W 005°34'716.5
2019-Aug-16 20:00N 54°59' W 005°24'6 1.9
2019-Aug-16 16:46N 55°00' W 005°14'520.0
2019-Aug-16 16:29N 54°58' W 005°22'1019.7
2019-Aug-16 16:00N 54°54' W 005°38'713.7
2019-Aug-16 15:30N 54°51' W 005°48'0 0.0
2019-Aug-16 14:51N 54°51' W 005°48'0 0.0
2019-Aug-16 14:30N 54°51' W 005°48'1014.8
2019-Aug-16 13:51N 54°56' W 005°33'719.6
2019-Aug-16 13:30N 54°59' W 005°23'6 2.4
2019-Aug-16 10:52N 55°00' W 005°13'720.2
2019-Aug-16 10:30N 54°57' W 005°24'1519.1
2019-Aug-16 09:43N 54°51' W 005°48'0 0.5
2019-Aug-16 09:30N 54°51' W 005°48'0 0.0
2019-Aug-16 08:58N 54°51' W 005°48'0 0.1
2019-Aug-16 08:30N 54°51' W 005°48'712.8
2019-Aug-16 07:59N 54°54' W 005°38'816.3
2019-Aug-16 07:29N 54°58' W 005°25'7 2.0
2019-Aug-16 04:13N 55°00' W 005°14'1117.7
2019-Aug-16 03:34N 54°56' W 005°33'217.0
2019-Aug-16 03:28N 54°55' W 005°36'816.1
2019-Aug-16 02:57N 54°51' W 005°48'0 0.3
2019-Aug-16 02:30N 54°51' W 005°48'0 0.0
2019-Aug-16 02:00N 54°51' W 005°48'0 0.0
2019-Aug-16 01:30N 54°51' W 005°48'0 0.0
2019-Aug-16 01:00N 54°51' W 005°48'914.0
2019-Aug-16 00:20N 54°55' W 005°34'618.0
2019-Aug-15 23:59N 54°58' W 005°24'7 1.9
2019-Aug-15 20:18N 55°00' W 005°12'617.4
2019-Aug-15 19:56N 54°58' W 005°22'1118.5
2019-Aug-15 19:22N 54°54' W 005°40'515.0
2019-Aug-15 19:00N 54°51' W 005°48'0 0.2
2019-Aug-15 18:25N 54°51' W 005°48'0 0.0
2019-Aug-15 17:55N 54°51' W 005°48'0 0.0
2019-Aug-15 17:30N 54°51' W 005°48'612.4
2019-Aug-15 17:00N 54°54' W 005°39'917.6
2019-Aug-15 16:30N 54°58' W 005°25'9 3.4
2019-Aug-15 13:53N 55°01' W 005°11'720.4
2019-Aug-15 13:31N 54°58' W 005°22'1019.0
2019-Aug-15 12:59N 54°54' W 005°38'613.3
2019-Aug-15 12:30N 54°51' W 005°48'0 0.1
2019-Aug-15 12:00N 54°51' W 005°48'0 0.0
2019-Aug-15 11:30N 54°51' W 005°48'713.0
2019-Aug-15 10:59N 54°54' W 005°38'917.4
2019-Aug-15 10:27N 54°58' W 005°24'1 0.4
2019-Aug-15 07:15N 54°57' W 005°24'618.0
2019-Aug-15 06:57N 54°55' W 005°33'917.6
2019-Aug-15 06:25N 54°51' W 005°48'0 0.5
2019-Aug-15 05:53N 54°51' W 005°48'0 0.0
2019-Aug-15 05:26N 54°51' W 005°48'0 0.0
2019-Aug-15 05:01N 54°51' W 005°48'510.6
2019-Aug-15 04:29N 54°54' W 005°40'919.0
2019-Aug-15 04:00N 54°58' W 005°26'8 2.3
2019-Aug-15 00:28N 55°01' W 005°12'1420.1
2019-Aug-14 23:45N 54°55' W 005°35'416.6
2019-Aug-14 23:30N 54°53' W 005°41'4 8.8
2019-Aug-14 23:00N 54°51' W 005°48'0 0.0
2019-Aug-14 22:23N 54°51' W 005°48'0 0.0
2019-Aug-14 21:53N 54°51' W 005°48'0 0.0
2019-Aug-14 21:20N 54°51' W 005°48'0 0.0
2019-Aug-14 21:00N 54°51' W 005°48'1514.2
2019-Aug-14 19:58N 54°58' W 005°25'7 2.1
2019-Aug-14 16:49N 54°60' W 005°14'620.1
2019-Aug-14 16:30N 54°57' W 005°24'1120.2
2019-Aug-14 15:56N 54°53' W 005°42'4 8.7
2019-Aug-14 15:30N 54°51' W 005°48'0 0.0
2019-Aug-14 14:52N 54°51' W 005°48'0 0.0
2019-Aug-14 14:29N 54°51' W 005°48'613.1
2019-Aug-14 13:59N 54°54' W 005°38'918.0
2019-Aug-14 13:29N 54°58' W 005°24'7 2.6
2019-Aug-14 10:46N 55°01' W 005°13'718.0
2019-Aug-14 10:22N 54°57' W 005°24'717.9
2019-Aug-14 09:57N 54°54' W 005°36'816.3
2019-Aug-14 09:28N 54°51' W 005°48'0 0.2
2019-Aug-14 08:49N 54°51' W 005°48'0 0.0
2019-Aug-14 08:30N 54°51' W 005°48'510.8
2019-Aug-14 07:59N 54°54' W 005°40'1518.0
2019-Aug-14 07:11N 55°00' W 005°17'3 1.2
2019-Aug-14 04:19N 55°02' W 005°11'616.8
2019-Aug-14 03:58N 54°58' W 005°20'818.4
2019-Aug-14 03:31N 54°55' W 005°33'916.8
2019-Aug-14 02:57N 54°51' W 005°48'0 0.3
2019-Aug-14 02:28N 54°51' W 005°48'0 0.0
2019-Aug-14 01:49N 54°51' W 005°48'0 0.0
2019-Aug-14 01:19N 54°51' W 005°48'0 0.0
2019-Aug-14 01:00N 54°51' W 005°48'612.2
2019-Aug-14 00:29N 54°54' W 005°39'918.3
2019-Aug-14 00:00N 54°58' W 005°25'917.5
2019-Aug-13 23:30N 55°01' W 005°11'8 2.3
2019-Aug-13 19:50N 54°57' W 005°23'718.0
2019-Aug-13 19:25N 54°54' W 005°36'817.2
2019-Aug-13 18:58N 54°51' W 005°48'0 0.7
2019-Aug-13 18:29N 54°51' W 005°48'0 0.0
2019-Aug-13 17:50N 54°51' W 005°48'0 0.0
2019-Aug-13 17:30N 54°51' W 005°48'1015.1
2019-Aug-13 16:49N 54°56' W 005°33'920.3
2019-Aug-13 16:24N 54°60' W 005°19'4 1.8
2019-Aug-13 13:55N 55°02' W 005°12'1021.7
2019-Aug-13 13:26N 54°56' W 005°27'920.8
2019-Aug-13 13:00N 54°53' W 005°42'4 6.0
2019-Aug-13 12:19N 54°51' W 005°48'0 0.0
2019-Aug-13 11:46N 54°51' W 005°48'0 0.0
2019-Aug-13 11:28N 54°51' W 005°48'610.3
2019-Aug-13 10:56N 54°54' W 005°40'1318.3
2019-Aug-13 10:13N 54°59' W 005°19'417.8
2019-Aug-13 09:59N 55°01' W 005°12'2 0.9
2019-Aug-13 07:39N 54°60' W 005°15'418.0
2019-Aug-13 07:26N 54°58' W 005°21'818.7
2019-Aug-13 07:00N 54°55' W 005°34'917.3
2019-Aug-13 06:30N 54°51' W 005°48'0 0.3
2019-Aug-13 06:00N 54°51' W 005°48'0 0.0
2019-Aug-13 05:29N 54°51' W 005°48'0 0.0
2019-Aug-13 05:00N 54°51' W 005°48'712.6
2019-Aug-13 04:28N 54°55' W 005°38'817.6
2019-Aug-13 04:00N 54°59' W 005°26'8 2.2
2019-Aug-13 00:18N 55°01' W 005°12'618.7
2019-Aug-12 23:58N 54°58' W 005°22'817.9
2019-Aug-12 23:30N 54°55' W 005°35'816.1
2019-Aug-12 23:00N 54°51' W 005°48'0 0.3
2019-Aug-12 22:28N 54°51' W 005°48'0 0.0
2019-Aug-12 21:58N 54°51' W 005°48'0 0.0
2019-Aug-12 21:19N 54°51' W 005°48'0 0.0
2019-Aug-12 20:59N 54°51' W 005°48'1513.7
2019-Aug-12 19:52N 54°58' W 005°24'6 2.0
2019-Aug-12 16:49N 54°60' W 005°14'1421.8
2019-Aug-12 16:11N 54°54' W 005°36'422.1
2019-Aug-12 16:00N 54°53' W 005°43'4 3.8
2019-Aug-12 15:03N 54°51' W 005°48'0 0.0
2019-Aug-12 14:48N 54°51' W 005°48'0 0.0
2019-Aug-12 14:29N 54°51' W 005°48'510.6
2019-Aug-12 14:00N 54°54' W 005°41'1118.1
2019-Aug-12 13:25N 54°59' W 005°25'6 2.2
2019-Aug-12 10:42N 54°60' W 005°15'520.5
2019-Aug-12 10:28N 54°58' W 005°22'919.8
2019-Aug-12 10:00N 54°54' W 005°37'714.6
2019-Aug-12 09:30N 54°51' W 005°48'0 0.1
2019-Aug-12 08:59N 54°51' W 005°48'0 0.0
2019-Aug-12 08:29N 54°51' W 005°48'4 6.6
2019-Aug-12 07:55N 54°53' W 005°43'918.1
2019-Aug-12 07:27N 54°57' W 005°30'818.1
2019-Aug-12 07:00N 54°60' W 005°17'2 0.9
2019-Aug-12 04:16N 55°01' W 005°12'617.7
2019-Aug-12 03:55N 54°58' W 005°22'918.6
2019-Aug-12 03:27N 54°54' W 005°36'816.4
2019-Aug-12 03:00N 54°51' W 005°48'0 0.5
2019-Aug-12 02:25N 54°51' W 005°48'0 0.0
2019-Aug-12 01:55N 54°51' W 005°48'0 0.0
2019-Aug-12 01:25N 54°51' W 005°48'0 0.0
2019-Aug-12 00:58N 54°51' W 005°48'6 8.3
2019-Aug-12 00:16N 54°54' W 005°39'818.1
2019-Aug-11 23:50N 54°57' W 005°27'617.6
2019-Aug-11 23:28N 54°60' W 005°17'3 0.8
2019-Aug-11 20:15N 55°01' W 005°12'819.5
2019-Aug-11 19:50N 54°57' W 005°24'619.6
2019-Aug-11 19:30N 54°55' W 005°35'816.7
2019-Aug-11 19:00N 54°51' W 005°48'0 0.1
2019-Aug-11 18:24N 54°51' W 005°48'0 0.0
2019-Aug-11 17:57N 54°51' W 005°48'0 0.0
2019-Aug-11 17:30N 54°51' W 005°48'713.3
2019-Aug-11 16:59N 54°54' W 005°37'816.9
2019-Aug-11 16:30N 54°58' W 005°25'7 2.7
2019-Aug-11 13:49N 55°00' W 005°13'617.8
2019-Aug-11 13:27N 54°57' W 005°23'817.4
2019-Aug-11 12:59N 54°54' W 005°36'715.4
2019-Aug-11 12:30N 54°51' W 005°48'0 0.2
2019-Aug-11 12:01N 54°51' W 005°48'0 0.0
2019-Aug-11 11:31N 54°51' W 005°48'712.0
2019-Aug-11 10:57N 54°54' W 005°38'1321.7
2019-Aug-11 10:21N 54°60' W 005°17'3 1.1
2019-Aug-11 07:53N 55°01' W 005°13'717.6
2019-Aug-11 07:29N 54°57' W 005°24'917.3
2019-Aug-11 06:58N 54°54' W 005°38'613.8
2019-Aug-11 06:30N 54°51' W 005°48'0 0.1
2019-Aug-11 05:48N 54°51' W 005°48'0 0.0
2019-Aug-11 05:30N 54°51' W 005°48'0 0.0
2019-Aug-11 05:00N 54°51' W 005°48'0 0.0
2019-Aug-11 04:30N 54°51' W 005°48'0 0.0
2019-Aug-11 03:51N 54°51' W 005°48'0 0.0
2019-Aug-11 03:21N 54°51' W 005°48'0 0.0
2019-Aug-11 03:00N 54°51' W 005°48'0 0.0
2019-Aug-11 02:24N 54°51' W 005°48'0 0.0
2019-Aug-11 01:54N 54°51' W 005°48'0 0.0
2019-Aug-11 01:24N 54°51' W 005°48'0 0.0
2019-Aug-11 00:54N 54°51' W 005°48'0 0.0
2019-Aug-11 00:24N 54°51' W 005°48'0 0.0
2019-Aug-10 23:57N 54°51' W 005°48'0 0.0
2019-Aug-10 23:30N 54°51' W 005°48'0 0.0
2019-Aug-10 22:57N 54°51' W 005°48'0 0.0
2019-Aug-10 22:27N 54°51' W 005°48'0 0.0
2019-Aug-10 21:54N 54°51' W 005°48'0 0.0
2019-Aug-10 21:27N 54°51' W 005°48'0 0.0
2019-Aug-10 21:00N 54°51' W 005°48'810.1
2019-Aug-10 20:14N 54°55' W 005°36'1216.9
2019-Aug-10 19:31N 54°60' W 005°17'017.2
2019-Aug-10 19:30N 54°60' W 005°17'4 1.4
2019-Aug-10 16:53N 55°01' W 005°11'717.7
2019-Aug-10 16:28N 54°58' W 005°22'1118.4
2019-Aug-10 15:53N 54°54' W 005°39'614.7
2019-Aug-10 15:30N 54°51' W 005°48'0 0.1
2019-Aug-10 15:00N 54°51' W 005°48'0 0.1
2019-Aug-10 14:30N 54°51' W 005°48'917.5
2019-Aug-10 14:00N 54°57' W 005°37'1120.9
2019-Aug-10 13:28N 55°01' W 005°18'3 1.1
2019-Aug-10 10:46N 55°01' W 005°13'618.1
2019-Aug-10 10:27N 54°57' W 005°21'917.3
2019-Aug-10 09:55N 54°54' W 005°37'  

Dump ship's entire track history